Airfield :
LOGIN :

Register | Disclaimer

   EN    FR    IT 

 










Legend :    VFR   Marginal VFR   IFR   Intensive IFR   Very Intensive IFR
Visi :
Ceiling :
>= 8 km
>= 3000ft
5 to 8 km
1000 to 3000 ft
1500m to 5 km
500 to 1000 ft
800 to 1500m
200 to 500 ft
< 800m
< 200 ft
Symbols :   Thunderstorms  Fog  Heavy snow  Heavy precipitations  Wind > 20 kt
SIGMETs :     Misc.  Thunderstorms  Icing  Turbulence  Mountain Waves  Volcanic Ashes







- Airport Elevation : 141 ft
- IATA code : SKS


EKSP - Srydstrup Vojens

CURRENT METAR :
  • 170720Z 12007KT 090V150 CAVOK 19/14 Q1016 NOSIG RMK BKN200

EXPIRED METARs :
  • 170650Z 12007KT CAVOK 18/14 Q1016 NOSIG RMK BKN200
  • 170620Z 12007KT CAVOK 17/14 Q1016 NOSIG RMK BKN200
  • 170550Z 13005KT 100V160 CAVOK 16/14 Q1017 NOSIG RMK BKN200
  • 170520Z 11007KT CAVOK 15/14 Q1017 NOSIG
  • 170450Z 11007KT CAVOK 14/12 Q1017 NOSIG

TAF TAF EKSP
Valid from the 17 at 06:00 until the 18 at 06:00 UTC


170454Z 1706/1806 15012KT 9999 FEW040 BKN200
BECMG 1713/1715 3000 RA BKN008
BECMG 1715/1718 19012KT
TEMPO 1715/1718 9999 -RA SCT008 BKN040
BECMG 1718/1720 6000 NSW SCT012 BKN020
TEMPO 1720/1806 1500 BR BKN004
No reported NOTAMs for that airfield.



MET'MAP, your aeronautical weather chart ! - Copyright ORBIFLY December 2007 - Disclaimer

ORBIFLY MET'MAP TEAM :

Programming & Development : Alexandra Zaïnal
Concept & Development : Baudouin d'Aumeries
Co-Development & Prog : Marc-Olivier Méhu
Technical & hardware support : Manuel Goepfert

Contact : metmap@orbifly.com




SOURCES & CREDITS :

   NOAA